createdAt,value
2023-05-03T00:00:11.346Z,4.50
2023-05-03T00:00:26.533Z,4.50
2023-05-03T00:00:57.858Z,4.50
2023-05-03T00:01:29.474Z,4.50
2023-05-03T00:02:01.570Z,4.50
2023-05-03T00:02:33.341Z,4.50
2023-05-03T00:03:06.481Z,4.50
2023-05-03T00:03:37.439Z,4.82
2023-05-03T00:04:09.869Z,5.23
2023-05-03T00:04:26.179Z,5.63
2023-05-03T00:04:57.479Z,5.63
2023-05-03T00:05:29.984Z,5.63
2023-05-03T00:06:01.439Z,5.79
2023-05-03T00:06:33.336Z,5.79
2023-05-03T00:07:06.495Z,5.79
2023-05-03T00:07:37.322Z,6.11
2023-05-03T00:08:09.227Z,6.84
2023-05-03T00:08:26.432Z,7.24
2023-05-03T00:08:57.324Z,7.56
2023-05-03T00:09:29.493Z,8.04
2023-05-03T00:10:02.355Z,8.20
2023-05-03T00:10:33.497Z,8.45
2023-05-03T00:11:06.499Z,8.45
2023-05-03T00:11:37.350Z,8.69
2023-05-03T00:12:09.301Z,8.69
2023-05-03T00:12:26.303Z,8.69
2023-05-03T00:12:57.403Z,8.85
2023-05-03T00:13:29.519Z,9.01
2023-05-03T00:14:01.337Z,9.01
2023-05-03T00:14:33.246Z,9.01
2023-05-03T00:15:07.650Z,9.17
2023-05-03T00:15:37.504Z,9.33
2023-05-03T00:16:09.222Z,9.33
2023-05-03T00:16:26.445Z,9.33
2023-05-03T00:16:57.490Z,9.33
2023-05-03T00:17:29.699Z,9.33
2023-05-03T00:17:46.190Z,9.49
2023-05-03T00:18:17.973Z,9.65
2023-05-03T00:18:38.640Z,9.65
2023-05-03T00:19:07.768Z,9.65
2023-05-03T00:19:37.328Z,9.65
2023-05-03T00:20:09.672Z,9.65
2023-05-03T00:20:26.237Z,10.22
2023-05-03T00:20:58.100Z,10.22
2023-05-03T00:21:29.558Z,9.65
2023-05-03T00:22:01.537Z,10.06
2023-05-03T00:22:33.254Z,10.06
2023-05-03T00:23:06.762Z,10.06
2023-05-03T00:23:37.381Z,10.06
2023-05-03T00:24:09.219Z,10.06
2023-05-03T00:24:26.244Z,10.06
2023-05-03T00:24:57.422Z,9.65
2023-05-03T00:25:29.931Z,9.65
2023-05-03T00:26:01.400Z,9.65
2023-05-03T00:26:33.230Z,9.65
2023-05-03T00:27:06.444Z,9.49
2023-05-03T00:27:37.276Z,9.33
2023-05-03T00:28:09.306Z,9.17
2023-05-03T00:28:26.308Z,9.17
2023-05-03T00:28:57.295Z,9.17
2023-05-03T00:29:29.523Z,9.01
2023-05-03T00:30:03.673Z,9.01
2023-05-03T00:30:33.286Z,8.85
2023-05-03T00:31:06.459Z,8.69
2023-05-03T00:31:37.613Z,8.69
2023-05-03T00:32:09.286Z,8.69
2023-05-03T00:32:26.292Z,8.69
2023-05-03T00:32:57.484Z,8.69
2023-05-03T00:33:29.576Z,8.45
2023-05-03T00:34:01.593Z,8.04
2023-05-03T00:34:33.385Z,7.88
2023-05-03T00:35:07.504Z,7.88
2023-05-03T00:35:37.430Z,8.04
2023-05-03T00:36:09.304Z,8.45
2023-05-03T00:36:27.294Z,8.45
2023-05-03T00:36:57.379Z,8.29
2023-05-03T00:37:29.589Z,7.88
2023-05-03T00:38:01.476Z,7.88
2023-05-03T00:38:33.265Z,7.56
2023-05-03T00:39:06.408Z,7.56
2023-05-03T00:39:37.465Z,7.56
2023-05-03T00:40:09.738Z,7.24
2023-05-03T00:40:26.263Z,7.40
2023-05-03T00:40:57.809Z,7.24
2023-05-03T00:41:29.961Z,7.08
2023-05-03T00:41:47.010Z,7.24
2023-05-03T00:42:17.413Z,7.24
2023-05-03T00:42:38.720Z,7.24
2023-05-03T00:43:06.424Z,6.84
2023-05-03T00:43:37.385Z,6.84
2023-05-03T00:44:09.271Z,6.43
2023-05-03T00:44:26.271Z,6.27
2023-05-03T00:44:57.458Z,6.11
2023-05-03T00:45:31.053Z,6.11
2023-05-03T00:45:46.157Z,6.11
2023-05-03T00:46:17.872Z,6.11
2023-05-03T00:46:38.741Z,6.11
2023-05-03T00:47:06.528Z,6.11
2023-05-03T00:47:37.377Z,6.11
2023-05-03T00:48:09.319Z,6.11
2023-05-03T00:48:26.151Z,5.95
2023-05-03T00:48:57.373Z,5.63
2023-05-03T00:49:29.547Z,5.23
2023-05-03T00:50:02.789Z,4.82
2023-05-03T00:50:33.537Z,4.82
2023-05-03T00:51:06.314Z,4.50
2023-05-03T00:51:37.469Z,4.34
2023-05-03T00:52:09.757Z,4.34
2023-05-03T00:52:26.214Z,4.34
2023-05-03T00:52:57.591Z,4.50
2023-05-03T00:53:29.619Z,4.34
2023-05-03T00:54:01.499Z,4.34
2023-05-03T00:54:33.206Z,4.50
2023-05-03T00:55:07.176Z,4.50
2023-05-03T00:55:37.318Z,4.34
2023-05-03T00:56:09.188Z,4.34
2023-05-03T00:56:26.422Z,4.34
2023-05-03T00:56:57.590Z,4.34
2023-05-03T00:57:29.533Z,4.34
2023-05-03T00:58:01.474Z,4.34
2023-05-03T00:58:33.229Z,4.50
2023-05-03T00:59:06.464Z,4.50
2023-05-03T00:59:37.799Z,4.66
2023-05-03T01:00:10.289Z,5.06
2023-05-03T01:00:26.603Z,5.47
2023-05-03T01:00:57.823Z,5.47
2023-05-03T01:01:29.516Z,5.47
2023-05-03T01:02:01.515Z,5.06
2023-05-03T01:02:33.714Z,5.06
2023-05-03T01:03:06.465Z,5.23
2023-05-03T01:03:37.793Z,5.47
2023-05-03T01:04:09.392Z,5.63
2023-05-03T01:04:26.318Z,5.63
2023-05-03T01:04:57.448Z,5.95
2023-05-03T01:05:29.925Z,6.27
2023-05-03T01:06:01.425Z,6.11
2023-05-03T01:06:33.230Z,5.63
2023-05-03T01:07:06.651Z,5.47
2023-05-03T01:07:37.569Z,5.63
2023-05-03T01:08:09.342Z,5.63
2023-05-03T01:08:26.452Z,5.23
2023-05-03T01:08:57.586Z,5.95
2023-05-03T01:09:29.544Z,5.95
2023-05-03T01:10:02.785Z,5.47
2023-05-03T01:10:33.197Z,5.47
2023-05-03T01:11:06.428Z,5.79
2023-05-03T01:11:37.347Z,5.79
2023-05-03T01:12:09.356Z,6.27
2023-05-03T01:12:26.495Z,6.27
2023-05-03T01:12:57.722Z,6.27
2023-05-03T01:13:29.495Z,5.95
2023-05-03T01:14:01.383Z,5.63
2023-05-03T01:14:33.304Z,5.47
2023-05-03T01:15:07.920Z,5.47
2023-05-03T01:15:37.348Z,5.47
2023-05-03T01:16:09.405Z,5.47
2023-05-03T01:16:26.715Z,5.47
2023-05-03T01:16:57.529Z,5.47
2023-05-03T01:17:29.665Z,5.23
2023-05-03T01:18:01.532Z,5.23
2023-05-03T01:18:33.256Z,5.23
2023-05-03T01:19:06.439Z,4.98
2023-05-03T01:19:37.430Z,4.82
2023-05-03T01:20:09.768Z,4.34
2023-05-03T01:20:26.357Z,3.46
2023-05-03T01:20:57.889Z,2.73
2023-05-03T01:21:29.539Z,2.73
2023-05-03T01:22:01.320Z,2.33
2023-05-03T01:22:33.308Z,2.09
2023-05-03T01:23:06.387Z,1.93
2023-05-03T01:23:37.671Z,1.77
2023-05-03T01:24:09.354Z,1.77
2023-05-03T01:24:26.319Z,1.61
2023-05-03T01:24:57.502Z,1.61
2023-05-03T01:25:29.962Z,1.44
2023-05-03T01:26:01.351Z,1.44
2023-05-03T01:26:33.266Z,1.44
2023-05-03T01:27:06.551Z,1.28
2023-05-03T01:27:37.319Z,1.28
2023-05-03T01:28:09.401Z,1.12
2023-05-03T01:28:26.378Z,1.12
2023-05-03T01:28:57.517Z,1.12
2023-05-03T01:29:29.582Z,.88
2023-05-03T01:29:46.458Z,.48
2023-05-03T01:30:18.220Z,.32
2023-05-03T01:30:38.782Z,.32
2023-05-03T01:31:06.524Z,.32
2023-05-03T01:31:37.484Z,.32
2023-05-03T01:32:09.325Z,.16
2023-05-03T01:32:26.346Z,.16
2023-05-03T01:32:58.735Z,0
2023-05-03T01:33:29.720Z,0
2023-05-03T01:33:46.746Z,0
2023-05-03T01:34:17.517Z,0
2023-05-03T01:34:38.720Z,0
2023-05-03T01:35:07.547Z,0
2023-05-03T01:35:37.559Z,0
2023-05-03T01:36:09.480Z,0
2023-05-03T01:36:26.324Z,0
2023-05-03T01:36:57.360Z,0
2023-05-03T01:37:29.557Z,0
2023-05-03T01:38:01.370Z,.16
2023-05-03T01:38:33.280Z,.32
2023-05-03T01:39:06.497Z,.48
2023-05-03T01:39:37.494Z,.64
2023-05-03T01:40:10.108Z,.88
2023-05-03T01:40:26.225Z,1.12
2023-05-03T01:40:57.901Z,1.12
2023-05-03T01:41:29.703Z,1.28
2023-05-03T01:42:01.455Z,1.12
2023-05-03T01:42:33.319Z,1.12
2023-05-03T01:43:06.332Z,1.12
2023-05-03T01:43:37.372Z,1.28
2023-05-03T01:44:09.803Z,1.44
2023-05-03T01:44:26.306Z,1.44
2023-05-03T01:44:57.679Z,1.44
2023-05-03T01:45:31.263Z,1.44
2023-05-03T01:45:46.417Z,1.44
2023-05-03T01:46:17.433Z,1.44
2023-05-03T01:46:38.786Z,1.44
2023-05-03T01:47:06.399Z,1.44
2023-05-03T01:47:37.412Z,1.44
2023-05-03T01:48:09.491Z,1.44
2023-05-03T01:48:26.340Z,1.28
2023-05-03T01:48:57.465Z,1.28
2023-05-03T01:49:29.588Z,1.28
2023-05-03T01:50:02.558Z,1.28
2023-05-03T01:50:33.359Z,1.44
2023-05-03T01:51:06.506Z,1.44
2023-05-03T01:51:37.335Z,1.44
2023-05-03T01:52:09.249Z,1.44
2023-05-03T01:52:26.481Z,1.44
2023-05-03T01:52:57.412Z,1.44
2023-05-03T01:53:29.603Z,1.44
2023-05-03T01:54:01.643Z,1.44
2023-05-03T01:54:33.602Z,1.44
2023-05-03T01:55:07.273Z,1.44
2023-05-03T01:55:37.472Z,1.44
2023-05-03T01:56:09.309Z,1.44
2023-05-03T01:56:26.345Z,1.28
2023-05-03T01:56:57.352Z,1.28
2023-05-03T01:57:29.520Z,1.12
2023-05-03T01:58:01.382Z,1.12
2023-05-03T01:58:33.601Z,.88
2023-05-03T01:59:06.433Z,.48
2023-05-03T01:59:37.577Z,.32
2023-05-03T02:00:10.382Z,.32
2023-05-03T02:00:26.558Z,.32
2023-05-03T02:00:58.527Z,.32
2023-05-03T02:01:29.673Z,.32
2023-05-03T02:02:01.394Z,.32
2023-05-03T02:02:33.253Z,.32
2023-05-03T02:03:06.763Z,.48
2023-05-03T02:03:37.306Z,.32
2023-05-03T02:04:09.375Z,.16
2023-05-03T02:04:26.274Z,.16
2023-05-03T02:04:57.638Z,.32
2023-05-03T02:05:29.954Z,.32
2023-05-03T02:06:01.399Z,.32
2023-05-03T02:06:33.333Z,.32
2023-05-03T02:07:06.446Z,.32
2023-05-03T02:07:38.562Z,.32
2023-05-03T02:08:09.820Z,.32
2023-05-03T02:08:26.348Z,.32
2023-05-03T02:08:57.510Z,.32
2023-05-03T02:09:29.489Z,.16
2023-05-03T02:10:03.480Z,0
2023-05-03T02:10:33.356Z,0
2023-05-03T02:11:06.421Z,0
2023-05-03T02:11:37.420Z,0
2023-05-03T02:12:09.422Z,0
2023-05-03T02:12:26.391Z,0
2023-05-03T02:12:57.519Z,0
2023-05-03T02:13:29.621Z,0
2023-05-03T02:14:01.399Z,0
2023-05-03T02:14:33.254Z,0
2023-05-03T02:15:08.153Z,0
2023-05-03T02:15:37.494Z,0
2023-05-03T02:16:09.364Z,0
2023-05-03T02:16:26.426Z,0
2023-05-03T02:16:57.425Z,0
2023-05-03T02:17:29.587Z,0
2023-05-03T02:18:01.440Z,0
2023-05-03T02:18:33.599Z,0
2023-05-03T02:19:06.453Z,0
2023-05-03T02:19:37.359Z,0
2023-05-03T02:20:09.759Z,0
2023-05-03T02:20:26.397Z,0
2023-05-03T02:20:58.732Z,0
2023-05-03T02:21:29.775Z,0
2023-05-03T02:21:46.548Z,0
2023-05-03T02:22:17.780Z,0
2023-05-03T02:22:38.755Z,0
2023-05-03T02:23:06.412Z,0
2023-05-03T02:23:37.732Z,0
2023-05-03T02:24:09.361Z,0
2023-05-03T02:24:26.418Z,0
2023-05-03T02:24:57.434Z,0
2023-05-03T02:25:29.982Z,0
2023-05-03T02:25:46.723Z,0
2023-05-03T02:26:17.658Z,0
2023-05-03T02:26:38.656Z,.16
2023-05-03T02:27:06.379Z,.32
2023-05-03T02:27:37.621Z,.32
2023-05-03T02:28:09.538Z,.32
2023-05-03T02:28:26.350Z,.72
2023-05-03T02:28:57.420Z,1.12
2023-05-03T02:29:29.632Z,1.12
2023-05-03T02:30:03.299Z,1.12
2023-05-03T02:30:33.594Z,1.28
2023-05-03T02:31:06.697Z,1.44
2023-05-03T02:31:37.412Z,1.44
2023-05-03T02:32:09.385Z,1.44
2023-05-03T02:32:26.432Z,1.61
2023-05-03T02:32:57.588Z,1.61
2023-05-03T02:33:29.609Z,1.77
2023-05-03T02:34:01.401Z,1.77
2023-05-03T02:34:33.297Z,1.77
2023-05-03T02:35:07.264Z,1.77
2023-05-03T02:35:37.471Z,1.77
2023-05-03T02:36:09.677Z,1.77
2023-05-03T02:36:26.467Z,1.77
2023-05-03T02:36:57.328Z,1.61
2023-05-03T02:37:29.612Z,1.61
2023-05-03T02:38:01.443Z,1.61
2023-05-03T02:38:33.446Z,1.61
2023-05-03T02:39:06.407Z,1.77
2023-05-03T02:39:37.649Z,1.77
2023-05-03T02:40:09.831Z,1.77
2023-05-03T02:40:26.822Z,1.77
2023-05-03T02:40:57.815Z,1.77
2023-05-03T02:41:29.611Z,1.77
2023-05-03T02:42:01.354Z,1.77
2023-05-03T02:42:33.264Z,1.77
2023-05-03T02:43:06.475Z,1.77
2023-05-03T02:43:37.558Z,1.77
2023-05-03T02:44:09.434Z,1.77
2023-05-03T02:44:28.548Z,1.77
2023-05-03T02:44:57.379Z,1.77
2023-05-03T02:45:30.882Z,1.77
2023-05-03T02:46:01.393Z,1.77
2023-05-03T02:46:33.704Z,1.77
2023-05-03T02:47:06.377Z,1.77
2023-05-03T02:47:37.431Z,1.77
2023-05-03T02:48:09.388Z,1.77
2023-05-03T02:48:26.358Z,1.77
2023-05-03T02:48:57.393Z,1.61
2023-05-03T02:49:29.966Z,1.44
2023-05-03T02:50:02.561Z,1.61
2023-05-03T02:50:33.456Z,1.77
2023-05-03T02:51:06.460Z,1.77
2023-05-03T02:51:37.582Z,1.77
2023-05-03T02:52:09.317Z,1.77
2023-05-03T02:52:26.420Z,1.77
2023-05-03T02:52:57.504Z,1.77
2023-05-03T02:53:29.605Z,1.77
2023-05-03T02:54:01.374Z,1.77
2023-05-03T02:54:33.698Z,1.61
2023-05-03T02:55:07.369Z,1.44
2023-05-03T02:55:37.399Z,1.44
2023-05-03T02:56:09.436Z,1.44
2023-05-03T02:56:26.391Z,1.44
2023-05-03T02:56:57.832Z,1.44
2023-05-03T02:57:29.606Z,1.61
2023-05-03T02:58:01.356Z,1.77
2023-05-03T02:58:33.302Z,1.77
2023-05-03T02:59:06.332Z,1.77
2023-05-03T02:59:37.392Z,1.77
2023-05-03T03:00:10.326Z,1.77
2023-05-03T03:00:26.569Z,1.77
2023-05-03T03:00:57.981Z,1.93
2023-05-03T03:01:29.926Z,2.09
2023-05-03T03:02:01.523Z,2.09
2023-05-03T03:02:33.705Z,2.09
2023-05-03T03:03:06.426Z,2.09
2023-05-03T03:03:38.045Z,2.09
2023-05-03T03:04:09.480Z,2.33
2023-05-03T03:04:26.214Z,2.73
2023-05-03T03:04:57.506Z,3.05
2023-05-03T03:05:30.103Z,3.05
2023-05-03T03:06:01.493Z,3.05
2023-05-03T03:06:33.391Z,3.05
2023-05-03T03:07:06.325Z,3.21
2023-05-03T03:07:37.445Z,3.21
2023-05-03T03:08:10.669Z,3.05
2023-05-03T03:08:26.239Z,3.05
2023-05-03T03:08:57.400Z,3.05
2023-05-03T03:09:29.631Z,3.05
2023-05-03T03:10:02.479Z,3.05
2023-05-03T03:10:33.274Z,2.73
2023-05-03T03:11:06.551Z,2.33
2023-05-03T03:11:37.517Z,2.09
2023-05-03T03:12:09.446Z,2.09
2023-05-03T03:12:26.278Z,2.09
2023-05-03T03:12:57.372Z,2.09
2023-05-03T03:13:29.923Z,2.09
2023-05-03T03:14:01.419Z,1.93
2023-05-03T03:14:33.606Z,1.77
2023-05-03T03:15:07.915Z,1.77
2023-05-03T03:15:37.427Z,1.77
2023-05-03T03:16:09.251Z,1.77
2023-05-03T03:16:26.265Z,1.77
2023-05-03T03:16:57.525Z,1.61
2023-05-03T03:17:29.822Z,1.44
2023-05-03T03:17:47.176Z,1.28
2023-05-03T03:18:19.463Z,1.12
2023-05-03T03:18:38.803Z,.88
2023-05-03T03:19:06.267Z,.48
2023-05-03T03:19:37.574Z,.48
2023-05-03T03:20:09.812Z,.48
2023-05-03T03:20:26.357Z,.48
2023-05-03T03:20:57.809Z,.48
2023-05-03T03:21:29.623Z,.32
2023-05-03T03:22:01.446Z,.32
2023-05-03T03:22:33.363Z,.16
2023-05-03T03:23:06.388Z,0
2023-05-03T03:23:37.724Z,0
2023-05-03T03:24:09.462Z,0
2023-05-03T03:24:26.391Z,0
2023-05-03T03:24:57.568Z,0
2023-05-03T03:25:30.346Z,0
2023-05-03T03:26:01.411Z,0
2023-05-03T03:26:33.326Z,0
2023-05-03T03:27:06.307Z,0
2023-05-03T03:27:39.520Z,0
2023-05-03T03:28:09.675Z,0
2023-05-03T03:28:36.435Z,0
2023-05-03T03:28:57.456Z,0
2023-05-03T03:29:29.783Z,0
2023-05-03T03:30:03.453Z,0
2023-05-03T03:30:33.396Z,0
2023-05-03T03:31:06.575Z,0
2023-05-03T03:31:37.612Z,0
2023-05-03T03:32:09.323Z,0
2023-05-03T03:32:26.437Z,0
2023-05-03T03:32:57.644Z,0
2023-05-03T03:33:29.860Z,0
2023-05-03T03:34:01.510Z,0
2023-05-03T03:34:33.404Z,0
2023-05-03T03:35:07.338Z,0
2023-05-03T03:35:37.428Z,0
2023-05-03T03:36:09.250Z,0
2023-05-03T03:36:26.387Z,0
2023-05-03T03:36:57.404Z,0
2023-05-03T03:37:29.708Z,0
2023-05-03T03:38:01.650Z,0
2023-05-03T03:38:33.925Z,0
2023-05-03T03:39:06.339Z,0
2023-05-03T03:39:37.457Z,0
2023-05-03T03:40:10.096Z,0
2023-05-03T03:40:26.393Z,0
2023-05-03T03:40:58.310Z,0
2023-05-03T03:41:29.545Z,0
2023-05-03T03:41:46.480Z,0
2023-05-03T03:42:19.018Z,0
2023-05-03T03:42:39.015Z,0
2023-05-03T03:43:06.745Z,0
2023-05-03T03:43:37.874Z,0
2023-05-03T03:44:09.734Z,0
2023-05-03T03:44:26.601Z,0
2023-05-03T03:44:58.334Z,0
2023-05-03T03:45:30.669Z,0
2023-05-03T03:46:01.624Z,0
2023-05-03T03:46:33.565Z,0
2023-05-03T03:47:06.713Z,0
2023-05-03T03:47:37.672Z,0
2023-05-03T03:48:09.775Z,0
2023-05-03T03:48:26.694Z,0
2023-05-03T03:48:58.030Z,0
2023-05-03T03:49:29.915Z,0
2023-05-03T03:50:03.534Z,0
2023-05-03T03:50:33.656Z,0
2023-05-03T03:51:06.936Z,0
2023-05-03T03:51:37.911Z,0
2023-05-03T03:52:09.556Z,0
2023-05-03T03:52:26.513Z,0
2023-05-03T03:52:57.606Z,0
2023-05-03T03:53:30.071Z,0
2023-05-03T03:54:01.684Z,0
2023-05-03T03:54:33.624Z,0
2023-05-03T03:55:07.543Z,0
2023-05-03T03:55:37.624Z,0
2023-05-03T03:56:09.579Z,0
2023-05-03T03:56:26.598Z,0
2023-05-03T03:56:57.661Z,0
2023-05-03T03:57:29.927Z,0
2023-05-03T03:58:01.780Z,0
2023-05-03T03:58:33.594Z,0
2023-05-03T03:59:06.919Z,0
2023-05-03T03:59:37.749Z,0
2023-05-03T04:00:10.963Z,0
2023-05-03T04:00:27.165Z,0
2023-05-03T04:00:58.247Z,0
2023-05-03T04:01:29.913Z,0
2023-05-03T04:01:46.481Z,0
2023-05-03T04:02:17.723Z,0
2023-05-03T04:02:39.351Z,0
2023-05-03T04:03:07.884Z,0
2023-05-03T04:03:37.783Z,0
2023-05-03T04:04:10.145Z,0
2023-05-03T04:04:26.627Z,0
2023-05-03T04:04:57.653Z,0
2023-05-03T04:05:30.261Z,0
2023-05-03T04:06:02.111Z,0
2023-05-03T04:06:33.783Z,0
2023-05-03T04:07:06.702Z,0
2023-05-03T04:07:37.702Z,0
2023-05-03T04:08:09.889Z,0
2023-05-03T04:08:26.585Z,0
2023-05-03T04:08:57.689Z,.56
2023-05-03T04:09:29.766Z,.72
2023-05-03T04:09:46.878Z,.72
2023-05-03T04:10:18.309Z,.72
2023-05-03T04:10:38.963Z,.72
2023-05-03T04:11:06.732Z,.88
2023-05-03T04:11:37.764Z,1.12
2023-05-03T04:12:09.642Z,1.12
2023-05-03T04:12:26.958Z,1.12
2023-05-03T04:12:57.835Z,1.28
2023-05-03T04:13:29.841Z,1.28
2023-05-03T04:14:01.678Z,1.44
2023-05-03T04:14:33.575Z,1.44
2023-05-03T04:15:08.018Z,1.44
2023-05-03T04:15:37.749Z,1.44
2023-05-03T04:16:09.590Z,1.44
2023-05-03T04:16:26.587Z,1.44
2023-05-03T04:16:57.729Z,1.61
2023-05-03T04:17:30.018Z,1.77
2023-05-03T04:17:46.975Z,1.77
2023-05-03T04:18:17.896Z,1.77
2023-05-03T04:18:38.900Z,1.77
2023-05-03T04:19:06.636Z,1.77
2023-05-03T04:19:37.892Z,1.77
2023-05-03T04:20:10.389Z,1.77
2023-05-03T04:20:36.856Z,1.77
2023-05-03T04:20:58.142Z,1.77
2023-05-03T04:21:29.991Z,1.77
2023-05-03T04:21:46.638Z,1.77
2023-05-03T04:22:18.178Z,1.77
2023-05-03T04:22:39.047Z,1.77
2023-05-03T04:23:06.569Z,1.77
2023-05-03T04:23:37.748Z,1.77
2023-05-03T04:24:09.582Z,1.77
2023-05-03T04:24:26.740Z,1.77
2023-05-03T04:24:57.878Z,1.77
2023-05-03T04:25:30.315Z,1.77
2023-05-03T04:25:46.714Z,1.77
2023-05-03T04:26:30.158Z,1.77
2023-05-03T04:26:39.319Z,1.77
2023-05-03T04:27:06.605Z,1.77
2023-05-03T04:27:37.825Z,1.61
2023-05-03T04:28:09.792Z,1.61
2023-05-03T04:28:26.610Z,1.61
2023-05-03T04:28:57.694Z,1.61
2023-05-03T04:29:29.911Z,1.77
2023-05-03T04:29:47.422Z,1.77
2023-05-03T04:30:18.896Z,1.77
2023-05-03T04:30:39.504Z,1.77
2023-05-03T04:31:06.892Z,1.77
2023-05-03T04:31:37.859Z,1.93
2023-05-03T04:32:09.653Z,2.09
2023-05-03T04:32:26.834Z,2.09
2023-05-03T04:32:57.823Z,2.65
2023-05-03T04:33:29.847Z,3.38
2023-05-03T04:33:46.704Z,3.54
2023-05-03T04:34:18.087Z,3.54
2023-05-03T04:34:39.142Z,3.78
2023-05-03T04:35:07.481Z,4.02
2023-05-03T04:35:37.796Z,4.02
2023-05-03T04:36:09.647Z,4.02
2023-05-03T04:36:27.089Z,4.02
2023-05-03T04:36:57.767Z,4.02
2023-05-03T04:37:29.859Z,4.02
2023-05-03T04:37:46.851Z,4.02
2023-05-03T04:38:17.806Z,4.02
2023-05-03T04:38:39.358Z,4.02
2023-05-03T04:39:06.712Z,4.18
2023-05-03T04:39:37.731Z,4.34
2023-05-03T04:40:10.055Z,4.34
2023-05-03T04:40:26.949Z,4.34
2023-05-03T04:40:58.419Z,4.34
2023-05-03T04:41:30.145Z,4.34
2023-05-03T04:41:46.818Z,4.50
2023-05-03T04:42:17.860Z,4.50
2023-05-03T04:42:39.515Z,4.66
2023-05-03T04:43:06.661Z,4.66
2023-05-03T04:43:37.767Z,4.50
2023-05-03T04:44:09.665Z,4.50
2023-05-03T04:44:26.596Z,4.66
2023-05-03T04:44:57.779Z,4.66
2023-05-03T04:45:31.086Z,4.66
2023-05-03T04:45:46.888Z,4.66
2023-05-03T04:46:18.189Z,4.66
2023-05-03T04:46:39.098Z,4.66
2023-05-03T04:47:06.735Z,4.66
2023-05-03T04:47:37.834Z,4.66
2023-05-03T04:48:11.026Z,4.66
2023-05-03T04:48:26.885Z,4.66
2023-05-03T04:48:57.761Z,4.66
2023-05-03T04:49:29.877Z,4.66
2023-05-03T04:49:46.897Z,4.82
2023-05-03T04:50:18.246Z,4.98
2023-05-03T04:50:39.151Z,4.98
2023-05-03T04:51:06.669Z,4.98
2023-05-03T04:51:37.670Z,4.82
2023-05-03T04:52:09.590Z,4.82
2023-05-03T04:52:26.658Z,4.82
2023-05-03T04:52:57.815Z,4.50
2023-05-03T04:53:29.887Z,4.18
2023-05-03T04:53:46.784Z,4.18
2023-05-03T04:54:17.735Z,4.18
2023-05-03T04:54:39.068Z,4.02
2023-05-03T04:55:07.446Z,4.02
2023-05-03T04:55:37.795Z,4.02
2023-05-03T04:56:09.750Z,3.78
2023-05-03T04:56:26.624Z,4.02
2023-05-03T04:56:57.809Z,3.78
2023-05-03T04:57:29.826Z,3.54
2023-05-03T04:57:46.780Z,3.38
2023-05-03T04:58:17.819Z,3.05
2023-05-03T04:58:39.045Z,3.05
2023-05-03T04:59:06.815Z,2.49
2023-05-03T04:59:38.284Z,2.09
2023-05-03T05:00:11.238Z,2.09
2023-05-03T05:00:26.963Z,2.09
2023-05-03T05:00:58.329Z,2.09
2023-05-03T05:01:29.973Z,2.49
2023-05-03T05:01:47.468Z,2.49
2023-05-03T05:02:17.872Z,2.49
2023-05-03T05:02:39.573Z,2.49
2023-05-03T05:03:06.921Z,2.89
2023-05-03T05:03:37.917Z,2.89
2023-05-03T05:04:09.676Z,2.89
2023-05-03T05:04:26.670Z,2.89
2023-05-03T05:04:57.762Z,2.89
2023-05-03T05:05:30.298Z,2.73
2023-05-03T05:06:01.818Z,2.73
2023-05-03T05:06:33.767Z,2.73
2023-05-03T05:07:06.653Z,2.89
2023-05-03T05:07:37.828Z,3.05
2023-05-03T05:08:09.817Z,3.05
2023-05-03T05:08:26.705Z,3.05
2023-05-03T05:08:57.709Z,3.21
2023-05-03T05:09:30.144Z,3.21
2023-05-03T05:10:03.072Z,3.21
2023-05-03T05:10:33.603Z,3.05
2023-05-03T05:11:06.713Z,3.05
2023-05-03T05:11:37.827Z,3.05
2023-05-03T05:12:09.998Z,3.05
2023-05-03T05:12:36.725Z,3.05
2023-05-03T05:12:57.774Z,3.21
2023-05-03T05:13:29.920Z,3.21
2023-05-03T05:14:01.618Z,3.21
2023-05-03T05:14:33.682Z,3.38
2023-05-03T05:15:08.096Z,3.38
2023-05-03T05:15:38.015Z,3.54
2023-05-03T05:16:09.648Z,3.78
2023-05-03T05:16:27.002Z,3.78
2023-05-03T05:16:57.650Z,3.78
2023-05-03T05:17:29.944Z,3.54
2023-05-03T05:18:01.772Z,3.54
2023-05-03T05:18:33.756Z,3.54
2023-05-03T05:19:06.686Z,3.54
2023-05-03T05:19:37.796Z,3.54
2023-05-03T05:20:10.443Z,3.54
2023-05-03T05:20:26.774Z,3.54
2023-05-03T05:20:58.116Z,3.54
2023-05-03T05:21:29.873Z,3.54
2023-05-03T05:21:47.622Z,3.54
2023-05-03T05:22:17.792Z,3.22
2023-05-03T05:22:38.994Z,2.73
2023-05-03T05:23:06.854Z,2.73
2023-05-03T05:23:37.619Z,2.57
2023-05-03T05:24:09.543Z,2.57
2023-05-03T05:24:26.649Z,2.57
2023-05-03T05:24:57.693Z,2.33
2023-05-03T05:25:30.196Z,2.33
2023-05-03T05:26:01.735Z,2.33
2023-05-03T05:26:33.591Z,2.33
2023-05-03T05:27:06.935Z,2.33
2023-05-03T05:27:37.725Z,2.33
2023-05-03T05:28:09.775Z,2.57
2023-05-03T05:28:27.309Z,2.73
2023-05-03T05:28:57.953Z,2.89
2023-05-03T05:29:29.853Z,2.89
2023-05-03T05:30:04.055Z,2.89
2023-05-03T05:30:33.914Z,2.89
2023-05-03T05:31:07.394Z,2.89
2023-05-03T05:31:37.697Z,3.05
2023-05-03T05:32:09.653Z,3.05
2023-05-03T05:32:26.743Z,3.21
2023-05-03T05:32:58.603Z,3.38
2023-05-03T05:33:29.998Z,3.38
2023-05-03T05:34:01.957Z,3.21
2023-05-03T05:34:42.151Z,3.21
2023-05-03T05:35:07.850Z,3.21
2023-05-03T05:35:37.863Z,3.38
2023-05-03T05:36:10.010Z,3.54
2023-05-03T05:36:26.901Z,3.54
2023-05-03T05:36:58.094Z,3.78
2023-05-03T05:37:30.040Z,4.18
2023-05-03T05:38:02.019Z,4.18
2023-05-03T05:38:33.958Z,4.18
2023-05-03T05:39:07.051Z,3.78
2023-05-03T05:39:37.923Z,3.78
2023-05-03T05:40:10.471Z,4.18
2023-05-03T05:40:27.185Z,4.02
2023-05-03T05:40:58.766Z,4.02
2023-05-03T05:41:30.129Z,4.02
2023-05-03T05:42:01.997Z,4.02
2023-05-03T05:42:33.934Z,4.02
2023-05-03T05:43:07.164Z,4.02
2023-05-03T05:43:38.022Z,4.02
2023-05-03T05:44:10.169Z,4.18
2023-05-03T05:44:26.769Z,4.34
2023-05-03T05:44:57.916Z,4.18
2023-05-03T05:45:31.135Z,4.18
2023-05-03T05:46:02.061Z,4.18
2023-05-03T05:46:33.827Z,4.02
2023-05-03T05:47:08.797Z,3.78
2023-05-03T05:47:37.928Z,3.78
2023-05-03T05:48:10.210Z,3.78
2023-05-03T05:48:26.848Z,3.54
2023-05-03T05:48:57.898Z,3.78
2023-05-03T05:49:30.070Z,4.02
2023-05-03T05:50:09.616Z,4.02
2023-05-03T05:50:34.029Z,4.18
2023-05-03T05:51:07.044Z,4.18
2023-05-03T05:51:38.049Z,4.50
2023-05-03T05:52:09.829Z,4.66
2023-05-03T05:52:26.791Z,4.66
2023-05-03T05:52:58.184Z,4.82
2023-05-03T05:53:30.149Z,4.98
2023-05-03T05:53:47.320Z,5.23
2023-05-03T05:54:18.171Z,5.23
2023-05-03T05:54:39.415Z,5.47
2023-05-03T05:55:08.033Z,5.47
2023-05-03T05:55:37.882Z,5.47
2023-05-03T05:56:10.104Z,5.47
2023-05-03T05:56:26.940Z,5.47
2023-05-03T05:56:58.221Z,5.47
2023-05-03T05:57:30.133Z,5.47
2023-05-03T05:58:02.005Z,5.47
2023-05-03T05:58:33.872Z,5.47
2023-05-03T05:59:07.195Z,5.63
2023-05-03T05:59:38.001Z,5.63
2023-05-03T06:00:11.151Z,5.63
2023-05-03T06:00:27.204Z,5.95
2023-05-03T06:00:58.620Z,5.63
2023-05-03T06:01:30.113Z,5.63
2023-05-03T06:02:02.053Z,5.95
2023-05-03T06:02:34.057Z,6.11
2023-05-03T06:03:07.283Z,5.95
2023-05-03T06:03:37.910Z,5.63
2023-05-03T06:04:10.690Z,5.47
2023-05-03T06:04:26.745Z,5.47
2023-05-03T06:04:58.521Z,5.47
2023-05-03T06:05:30.750Z,5.47
2023-05-03T06:06:02.198Z,5.47
2023-05-03T06:06:33.963Z,5.47
2023-05-03T06:07:08.101Z,5.47
2023-05-03T06:07:37.938Z,5.23
2023-05-03T06:08:10.308Z,5.23
2023-05-03T06:08:27.048Z,5.23
2023-05-03T06:08:58.001Z,5.23
2023-05-03T06:09:30.137Z,5.23
2023-05-03T06:10:03.438Z,5.23
2023-05-03T06:10:33.888Z,5.23
2023-05-03T06:11:07.004Z,5.47
2023-05-03T06:11:38.129Z,5.47
2023-05-03T06:12:09.884Z,5.47
2023-05-03T06:12:27.026Z,5.47
2023-05-03T06:12:58.227Z,5.63
2023-05-03T06:13:30.170Z,5.95
2023-05-03T06:14:01.937Z,6.68
2023-05-03T06:14:34.298Z,7.24
2023-05-03T06:15:08.292Z,7.24
2023-05-03T06:15:37.948Z,7.24
2023-05-03T06:16:10.107Z,7.56
2023-05-03T06:16:26.843Z,7.56
2023-05-03T06:16:58.116Z,7.56
2023-05-03T06:17:30.006Z,7.56
2023-05-03T06:17:46.795Z,7.88
2023-05-03T06:18:18.214Z,7.88
2023-05-03T06:18:39.931Z,8.04
2023-05-03T06:19:07.248Z,8.04
2023-05-03T06:19:37.969Z,8.04
2023-05-03T06:20:10.354Z,8.04
2023-05-03T06:20:27.091Z,8.45
2023-05-03T06:20:58.665Z,8.45
2023-05-03T06:21:30.116Z,8.04
2023-05-03T06:22:02.053Z,7.56
2023-05-03T06:22:33.978Z,7.56
2023-05-03T06:23:07.039Z,7.56
2023-05-03T06:23:38.026Z,7.56
2023-05-03T06:24:09.902Z,7.56
2023-05-03T06:24:26.931Z,6.84
2023-05-03T06:24:58.356Z,6.43
2023-05-03T06:25:30.664Z,6.43
2023-05-03T06:26:01.934Z,6.84
2023-05-03T06:26:33.982Z,7.31
2023-05-03T06:27:07.083Z,8.20
2023-05-03T06:27:38.027Z,8.20
2023-05-03T06:28:09.751Z,7.88
2023-05-03T06:28:26.841Z,7.88
2023-05-03T06:28:58.427Z,7.88
2023-05-03T06:29:30.160Z,8.20
2023-05-03T06:30:04.434Z,8.20
2023-05-03T06:30:33.977Z,7.88
2023-05-03T06:31:07.090Z,7.88
2023-05-03T06:31:38.241Z,7.88
2023-05-03T06:32:09.910Z,7.88
2023-05-03T06:32:27.058Z,7.40
2023-05-03T06:32:57.910Z,7.08
2023-05-03T06:33:30.188Z,6.92